Terminal Aerodrome Forecast
Issued by NWS Billings, MT

Home | Current Version | Previous Version | Text Only | Print | Product List | Glossary On
Versions: 1 2 3 4 5 6 7 8 9 10 11 12 13 14 15 16 17 18 19 20 21 22 23 24 25 26 27 28 29 30 31 32 33 34 35 36 37 38 39 40 41 42
000
FTUS45 KBYZ 191127
TAFBIL
TAF
KBIL 191127Z 1912/2012 25010KT P6SM SCT200
     FM191600 29014G24KT P6SM SCT100
     FM192200 35014G24KT P6SM SCT100
     FM200200 36006KT P6SM FEW100
     FM200600 25006KT P6SM FEW100=

USA.gov is the U.S. government's official web portal to all federal, state and local government web resources and services.